createdAt,value
2023-03-31T04:02:33.613Z,2.50
2023-03-31T04:05:00.445Z,2.90
2023-03-31T04:07:27.222Z,2.50
2023-03-31T04:09:53.821Z,3.00
2023-03-31T04:12:20.554Z,2.45
2023-03-31T04:14:47.087Z,3.05
2023-03-31T04:17:15.917Z,2.63
2023-03-31T04:19:42.672Z,2.35
2023-03-31T04:22:11.752Z,2.67
2023-03-31T04:24:39.713Z,2.47
2023-03-31T04:27:11.612Z,2.30
2023-03-31T04:29:42.197Z,2.80
2023-03-31T04:32:09.216Z,2.25
2023-03-31T04:34:36.406Z,2.20
2023-03-31T04:37:03.798Z,2.35
2023-03-31T04:39:31.298Z,1.95
2023-03-31T04:42:09.189Z,2.40
2023-03-31T04:44:35.927Z,2.22
2023-03-31T04:47:04.787Z,1.83
2023-03-31T04:49:33.604Z,1.50
2023-03-31T04:52:00.404Z,1.70
2023-03-31T04:54:26.924Z,1.43
2023-03-31T04:56:53.497Z,1.83
2023-03-31T04:59:20.048Z,1.60
2023-03-31T05:01:47.187Z,2.08
2023-03-31T05:04:13.781Z,1.60
2023-03-31T05:06:40.637Z,1.67
2023-03-31T05:09:07.240Z,1.90
2023-03-31T05:11:33.810Z,1.33
2023-03-31T05:14:00.895Z,1.58
2023-03-31T05:16:27.472Z,1.85
2023-03-31T05:18:54.642Z,1.53
2023-03-31T05:21:22.059Z,1.77
2023-03-31T05:23:49.061Z,1.65
2023-03-31T05:26:16.353Z,1.58
2023-03-31T05:28:43.665Z,1.45
2023-03-31T05:31:13.094Z,1.90
2023-03-31T05:33:42.223Z,1.50
2023-03-31T05:36:14.195Z,1.60
2023-03-31T05:38:41.528Z,1.50
2023-03-31T05:41:09.710Z,1.45
2023-03-31T05:43:37.907Z,1.57
2023-03-31T05:46:05.182Z,1.30
2023-03-31T05:48:32.196Z,1.23
2023-03-31T05:51:01.728Z,1.33
2023-03-31T05:53:28.375Z,1.17
2023-03-31T05:56:03.515Z,1.20
2023-03-31T05:58:30.741Z,1.00
2023-03-31T06:01:06.721Z,0.90
2023-03-31T06:03:35.632Z,1.17
2023-03-31T06:06:03.225Z,0.90
2023-03-31T06:08:30.113Z,1.00
2023-03-31T06:10:56.716Z,0.80
2023-03-31T06:13:23.746Z,0.85
2023-03-31T06:15:56.985Z,0.70
2023-03-31T06:18:24.965Z,0.65
2023-03-31T06:20:51.951Z,0.60
2023-03-31T06:23:19.929Z,0.90
2023-03-31T06:25:51.464Z,0.65
2023-03-31T06:28:19.335Z,0.70
2023-03-31T06:30:45.961Z,0.80
2023-03-31T06:33:15.241Z,1.13
2023-03-31T06:35:41.884Z,1.10
2023-03-31T06:38:08.833Z,1.10
2023-03-31T06:40:35.406Z,1.15
2023-03-31T06:43:02.399Z,1.00
2023-03-31T06:45:29.016Z,0.80
2023-03-31T06:47:56.225Z,1.00
2023-03-31T06:50:22.780Z,1.13
2023-03-31T06:52:53.098Z,1.00
2023-03-31T06:55:19.697Z,1.50
2023-03-31T06:57:46.445Z,1.20
2023-03-31T07:00:13.641Z,1.60
2023-03-31T07:02:40.933Z,1.50
2023-03-31T07:05:07.975Z,1.50
2023-03-31T07:07:34.738Z,1.40
2023-03-31T07:10:01.274Z,1.90
2023-03-31T07:12:27.841Z,1.60
2023-03-31T07:14:54.379Z,2.33
2023-03-31T07:17:21.144Z,2.03
2023-03-31T07:19:48.244Z,2.20
2023-03-31T07:22:15.855Z,2.13
2023-03-31T07:24:42.666Z,2.30
2023-03-31T07:27:09.513Z,1.90
2023-03-31T07:29:36.054Z,2.20
2023-03-31T07:32:02.602Z,2.13
2023-03-31T07:34:29.195Z,2.47
2023-03-31T07:36:56.594Z,2.17
2023-03-31T07:39:23.567Z,3.15
2023-03-31T07:41:50.366Z,3.10
2023-03-31T07:44:17.670Z,3.17
2023-03-31T07:46:44.456Z,2.77
2023-03-31T07:49:15.627Z,2.67
2023-03-31T07:51:42.299Z,2.45
2023-03-31T07:54:08.875Z,2.63
2023-03-31T07:56:35.448Z,2.58
2023-03-31T07:59:02.471Z,2.53
2023-03-31T08:01:29.562Z,2.70
2023-03-31T08:03:57.041Z,2.78
2023-03-31T08:06:25.370Z,2.90
2023-03-31T08:08:52.220Z,3.00
2023-03-31T08:11:19.655Z,4.00
2023-03-31T08:13:46.632Z,3.60
2023-03-31T08:16:13.577Z,5.82
2023-03-31T08:18:40.153Z,4.55
2023-03-31T08:21:07.553Z,5.82
2023-03-31T08:23:34.165Z,4.53
2023-03-31T08:26:18.912Z,4.95
2023-03-31T08:28:46.407Z,5.75
2023-03-31T08:31:16.272Z,4.00
2023-03-31T08:33:43.391Z,6.60
2023-03-31T08:36:10.933Z,7.30
2023-03-31T08:38:39.487Z,5.53
2023-03-31T08:41:08.370Z,4.20
2023-03-31T08:43:42.438Z,3.97
2023-03-31T08:46:12.672Z,4.60
2023-03-31T08:48:49.095Z,3.60
2023-03-31T08:51:21.990Z,3.22
2023-03-31T08:54:03.169Z,3.83
2023-03-31T08:56:34.608Z,2.70
2023-03-31T08:59:02.765Z,2.40
2023-03-31T09:02:13.752Z,2.50
2023-03-31T09:05:20.283Z,3.45
2023-03-31T09:08:19.519Z,2.60
2023-03-31T09:10:58.075Z,2.40
2023-03-31T09:13:40.183Z,2.72
2023-03-31T09:16:22.940Z,3.07
2023-03-31T09:18:53.679Z,2.90
2023-03-31T09:21:29.933Z,2.97
2023-03-31T09:24:02.082Z,3.13
2023-03-31T09:26:46.165Z,2.72
2023-03-31T09:29:18.791Z,3.10
2023-03-31T09:31:47.379Z,2.70
2023-03-31T09:34:31.420Z,2.95
2023-03-31T09:36:58.350Z,2.60
2023-03-31T09:39:25.709Z,2.45
2023-03-31T09:41:56.686Z,2.60
2023-03-31T09:44:31.083Z,2.40
2023-03-31T09:47:01.246Z,2.80
2023-03-31T09:49:32.795Z,2.50
2023-03-31T09:52:14.952Z,2.65
2023-03-31T09:54:49.774Z,2.33
2023-03-31T09:57:32.019Z,2.30
2023-03-31T10:00:14.413Z,2.47
2023-03-31T10:02:47.812Z,2.30
2023-03-31T10:05:31.069Z,2.10
2023-03-31T10:08:18.103Z,2.40
2023-03-31T10:10:48.684Z,1.98
2023-03-31T10:13:29.456Z,2.58
2023-03-31T10:16:03.853Z,2.10
2023-03-31T10:18:39.712Z,2.13
2023-03-31T10:21:15.676Z,2.40
2023-03-31T10:23:47.413Z,2.10
2023-03-31T10:26:36.730Z,2.25
2023-03-31T10:29:12.566Z,1.77
2023-03-31T10:31:40.125Z,1.98
2023-03-31T10:34:13.211Z,1.83
2023-03-31T10:36:47.581Z,1.65
2023-03-31T10:39:17.392Z,1.63
2023-03-31T10:41:49.673Z,1.92
2023-03-31T10:44:36.627Z,1.50
2023-03-31T10:47:19.190Z,1.73
2023-03-31T10:49:49.210Z,2.08
2023-03-31T10:52:28.350Z,1.67
2023-03-31T10:55:04.281Z,1.67
2023-03-31T10:57:59.136Z,2.03
2023-03-31T11:00:49.690Z,2.00
2023-03-31T11:03:33.768Z,2.22
2023-03-31T11:06:10.638Z,1.90
2023-03-31T11:08:59.100Z,2.10
2023-03-31T11:11:25.701Z,1.60
2023-03-31T11:14:12.930Z,2.23
2023-03-31T11:16:59.920Z,1.90
2023-03-31T11:19:38.495Z,1.98
2023-03-31T11:22:34.907Z,2.00
2023-03-31T11:25:16.598Z,2.10
2023-03-31T11:28:01.303Z,1.97
2023-03-31T11:30:30.367Z,2.00
2023-03-31T11:33:08.558Z,2.00
2023-03-31T11:35:57.678Z,2.10
2023-03-31T11:38:39.777Z,1.83
2023-03-31T11:41:14.331Z,2.17
2023-03-31T11:43:44.195Z,1.90
2023-03-31T11:46:22.564Z,2.08
2023-03-31T11:48:58.220Z,2.13
2023-03-31T11:51:26.732Z,2.33
2023-03-31T11:53:55.985Z,2.20
2023-03-31T11:56:30.789Z,2.40
2023-03-31T11:59:03.487Z,2.38
2023-03-31T12:01:41.288Z,2.13
2023-03-31T12:04:08.007Z,2.30
2023-03-31T12:06:41.842Z,2.50
2023-03-31T12:09:08.401Z,2.65
2023-03-31T12:11:49.435Z,2.92
2023-03-31T12:14:25.401Z,3.10
2023-03-31T12:16:56.554Z,3.50
2023-03-31T12:19:34.040Z,2.90
2023-03-31T12:22:39.620Z,3.03
2023-03-31T12:25:11.592Z,2.90
2023-03-31T12:27:43.722Z,2.60
2023-03-31T12:30:29.227Z,2.40
2023-03-31T12:33:04.230Z,2.27
2023-03-31T12:35:53.683Z,2.10
2023-03-31T12:38:29.280Z,2.45
2023-03-31T12:41:21.369Z,2.55
2023-03-31T12:44:03.353Z,2.75
2023-03-31T12:46:43.372Z,2.40
2023-03-31T12:49:30.474Z,2.10
2023-03-31T12:52:11.738Z,2.60
2023-03-31T12:54:53.700Z,2.75
2023-03-31T12:57:23.497Z,2.40
2023-03-31T13:00:11.811Z,2.40
2023-03-31T13:02:39.828Z,2.60
2023-03-31T13:05:37.777Z,2.30
2023-03-31T13:08:07.366Z,1.88
2023-03-31T13:10:59.944Z,1.67
2023-03-31T13:13:27.368Z,1.83
2023-03-31T13:16:03.211Z,1.92
2023-03-31T13:18:33.591Z,2.60
2023-03-31T13:21:06.105Z,2.90
2023-03-31T13:23:36.103Z,2.30
2023-03-31T13:26:03.172Z,2.03
2023-03-31T13:28:34.732Z,2.43
2023-03-31T13:31:02.560Z,2.17
2023-03-31T13:33:29.095Z,2.15
2023-03-31T13:36:18.663Z,2.38
2023-03-31T13:39:00.598Z,2.38
2023-03-31T13:41:48.905Z,1.80
2023-03-31T13:44:39.926Z,2.13
2023-03-31T13:47:16.055Z,2.17
2023-03-31T13:50:10.652Z,2.33
2023-03-31T13:52:57.086Z,2.10
2023-03-31T13:55:42.355Z,1.87
2023-03-31T13:58:34.166Z,2.22
2023-03-31T14:01:39.860Z,1.70
2023-03-31T14:04:09.148Z,2.00
2023-03-31T14:06:39.910Z,2.20
2023-03-31T14:09:10.634Z,2.00
2023-03-31T14:11:37.895Z,1.30
2023-03-31T14:14:14.734Z,1.63
2023-03-31T14:16:51.146Z,1.40
2023-03-31T14:19:39.571Z,1.17
2023-03-31T14:22:43.436Z,0.83
2023-03-31T14:25:17.224Z,1.40
2023-03-31T14:28:13.830Z,1.15
2023-03-31T14:31:21.831Z,0.88
2023-03-31T14:34:13.417Z,0.90
2023-03-31T14:36:51.268Z,1.00
2023-03-31T14:39:22.427Z,1.40
2023-03-31T14:41:59.408Z,1.30
2023-03-31T14:44:29.527Z,1.20
2023-03-31T14:47:00.382Z,1.52
2023-03-31T14:49:29.062Z,1.20
2023-03-31T14:52:01.231Z,1.15
2023-03-31T14:54:27.992Z,1.25
2023-03-31T14:56:58.398Z,1.00
2023-03-31T14:59:31.573Z,1.20
2023-03-31T15:01:59.650Z,1.23
2023-03-31T15:04:41.391Z,1.30
2023-03-31T15:07:08.813Z,1.23
2023-03-31T15:09:36.398Z,1.58
2023-03-31T15:12:08.342Z,1.25
2023-03-31T15:14:40.790Z,1.30
2023-03-31T15:17:18.140Z,1.40
2023-03-31T15:19:44.721Z,1.70
2023-03-31T15:22:19.087Z,1.85
2023-03-31T15:24:46.650Z,1.52
2023-03-31T15:27:23.352Z,1.47
2023-03-31T15:29:56.176Z,1.65
2023-03-31T15:32:29.059Z,1.70
2023-03-31T15:34:58.738Z,1.80
2023-03-31T15:37:42.628Z,1.50
2023-03-31T15:40:27.349Z,1.60
2023-03-31T15:43:13.325Z,1.63
2023-03-31T15:45:52.490Z,1.90
2023-03-31T15:48:53.054Z,1.60
2023-03-31T15:51:29.996Z,1.50
2023-03-31T15:53:56.618Z,1.90
2023-03-31T15:56:38.210Z,1.98
2023-03-31T15:59:05.675Z,2.00
2023-03-31T16:01:46.985Z,2.30
2023-03-31T16:04:15.752Z,2.13
2023-03-31T16:06:47.872Z,2.50
2023-03-31T16:09:40.544Z,1.88
2023-03-31T16:12:21.575Z,2.10
2023-03-31T16:14:55.181Z,2.30
2023-03-31T16:17:33.268Z,2.40
2023-03-31T16:20:16.791Z,2.17
2023-03-31T16:22:51.882Z,2.03
2023-03-31T16:25:24.957Z,2.70
2023-03-31T16:27:58.688Z,2.20
2023-03-31T16:30:39.830Z,2.60
2023-03-31T16:33:12.326Z,3.47
2023-03-31T16:35:41.734Z,3.20
2023-03-31T16:38:11.122Z,3.45
2023-03-31T16:40:40.622Z,3.00
2023-03-31T16:43:18.678Z,3.80
2023-03-31T16:45:48.084Z,3.50
2023-03-31T16:48:17.524Z,3.05
2023-03-31T16:50:51.350Z,2.90
2023-03-31T16:53:20.629Z,4.32
2023-03-31T16:55:47.294Z,2.60
2023-03-31T16:58:14.640Z,1.83
2023-03-31T17:00:42.081Z,3.20
2023-03-31T17:03:10.335Z,2.40
2023-03-31T17:05:45.248Z,3.45
2023-03-31T17:08:13.061Z,3.05
2023-03-31T17:10:40.898Z,3.60
2023-03-31T17:13:09.233Z,3.47
2023-03-31T17:15:37.918Z,3.55
2023-03-31T17:18:04.992Z,5.82
2023-03-31T17:20:32.939Z,4.30
2023-03-31T17:22:59.961Z,3.23
2023-03-31T17:25:27.164Z,3.80
2023-03-31T17:27:56.607Z,3.00
2023-03-31T17:30:23.684Z,3.08
2023-03-31T17:32:51.585Z,3.33
2023-03-31T17:35:22.642Z,3.03
2023-03-31T17:37:53.502Z,3.55
2023-03-31T17:40:26.832Z,3.70
2023-03-31T17:42:54.854Z,3.97
2023-03-31T17:45:21.668Z,4.22
2023-03-31T17:47:48.396Z,5.93
2023-03-31T17:50:14.997Z,4.10
2023-03-31T17:52:41.600Z,6.25
2023-03-31T17:55:09.737Z,3.60
2023-03-31T17:57:37.271Z,4.75
2023-03-31T18:00:06.118Z,3.63
2023-03-31T18:02:32.797Z,3.65
2023-03-31T18:04:59.529Z,3.95
2023-03-31T18:07:26.509Z,4.00
2023-03-31T18:09:53.314Z,4.20
2023-03-31T18:12:19.888Z,4.20
2023-03-31T18:14:46.792Z,4.30
2023-03-31T18:17:15.051Z,4.40
2023-03-31T18:19:43.473Z,4.90
2023-03-31T18:22:10.954Z,4.80
2023-03-31T18:24:38.490Z,4.50
2023-03-31T18:27:05.623Z,4.40
2023-03-31T18:29:32.306Z,4.07
2023-03-31T18:31:59.287Z,4.50
2023-03-31T18:34:25.920Z,4.43
2023-03-31T18:36:52.994Z,4.23
2023-03-31T18:39:19.965Z,4.57
2023-03-31T18:41:48.549Z,4.55
2023-03-31T18:44:18.321Z,4.85
2023-03-31T18:46:46.141Z,4.55
2023-03-31T18:49:14.474Z,5.60
2023-03-31T18:51:41.121Z,5.05
2023-03-31T18:54:07.925Z,4.75
2023-03-31T18:56:34.522Z,4.25
2023-03-31T18:59:03.958Z,5.10
2023-03-31T19:01:32.687Z,5.13
2023-03-31T19:03:59.563Z,5.43
2023-03-31T19:06:26.857Z,5.15
2023-03-31T19:08:56.606Z,5.03
2023-03-31T19:11:23.969Z,5.45
2023-03-31T19:13:50.593Z,5.23
2023-03-31T19:16:18.750Z,5.53
2023-03-31T19:18:45.530Z,5.70
2023-03-31T19:21:12.380Z,5.93
2023-03-31T19:23:39.431Z,6.03
2023-03-31T19:26:07.068Z,5.87
2023-03-31T19:28:33.665Z,6.15
2023-03-31T19:31:06.508Z,6.18
2023-03-31T19:33:33.507Z,6.40
2023-03-31T19:36:00.296Z,5.45
2023-03-31T19:38:31.837Z,6.57
2023-03-31T19:40:58.481Z,6.80
2023-03-31T19:43:25.367Z,6.80
2023-03-31T19:45:54.127Z,7.03
2023-03-31T19:48:21.349Z,7.00
2023-03-31T19:50:55.995Z,7.13
2023-03-31T19:53:23.802Z,7.00
2023-03-31T19:56:01.039Z,6.47
2023-03-31T19:58:29.717Z,6.30
2023-03-31T20:00:58.648Z,7.20
2023-03-31T20:03:27.299Z,6.53
2023-03-31T20:06:07.694Z,6.95
2023-03-31T20:08:35.645Z,5.80
2023-03-31T20:11:04.364Z,5.32
2023-03-31T20:13:32.670Z,5.28
2023-03-31T20:16:01.890Z,5.47
2023-03-31T20:18:29.308Z,4.93
2023-03-31T20:21:14.001Z,4.75
2023-03-31T20:23:41.726Z,5.43
2023-03-31T20:26:10.328Z,4.47
2023-03-31T20:28:39.642Z,4.80
2023-03-31T20:31:26.992Z,4.20
2023-03-31T20:33:54.970Z,5.03
2023-03-31T20:36:31.494Z,5.47
2023-03-31T20:38:59.305Z,4.53
2023-03-31T20:41:28.482Z,5.37
2023-03-31T20:43:55.598Z,4.45
2023-03-31T20:46:23.651Z,5.00
2023-03-31T20:48:53.204Z,4.88
2023-03-31T20:51:22.714Z,4.60
2023-03-31T20:53:52.826Z,4.90
2023-03-31T20:56:34.055Z,5.05
2023-03-31T20:59:00.991Z,4.75
2023-03-31T21:01:30.038Z,4.97
2023-03-31T21:04:02.106Z,4.85
2023-03-31T21:06:31.124Z,4.93
2023-03-31T21:08:57.786Z,4.28
2023-03-31T21:11:25.165Z,4.90
2023-03-31T21:13:53.100Z,4.53
2023-03-31T21:16:21.042Z,4.65
2023-03-31T21:18:48.006Z,4.27
2023-03-31T21:21:18.541Z,3.90
2023-03-31T21:23:46.580Z,3.10
2023-03-31T21:26:15.032Z,3.40
2023-03-31T21:28:42.704Z,3.15
2023-03-31T21:31:20.652Z,3.07
2023-03-31T21:33:47.417Z,2.78
2023-03-31T21:36:17.854Z,3.30
2023-03-31T21:38:45.681Z,3.00
2023-03-31T21:41:17.129Z,3.00
2023-03-31T21:43:44.444Z,2.80
2023-03-31T21:46:18.956Z,2.90
2023-03-31T21:48:46.800Z,2.70
2023-03-31T21:51:13.524Z,3.08
2023-03-31T21:53:40.127Z,2.58
2023-03-31T21:56:07.356Z,2.73
2023-03-31T21:58:34.363Z,2.40
2023-03-31T22:01:10.335Z,2.75
2023-03-31T22:03:43.908Z,2.38
2023-03-31T22:06:11.618Z,3.22
2023-03-31T22:08:41.647Z,2.70
